createdAt,value
2023-10-20T00:00:55.577Z,4.72
2023-10-20T00:04:07.445Z,4.22
2023-10-20T00:07:10.127Z,4.45
2023-10-20T00:10:12.890Z,4.30
2023-10-20T00:13:15.708Z,4.32
2023-10-20T00:16:27.966Z,5.18
2023-10-20T00:19:30.988Z,6.00
2023-10-20T00:22:33.136Z,6.63
2023-10-20T00:25:35.563Z,4.97
2023-10-20T00:28:38.072Z,4.32
2023-10-20T00:31:41.214Z,4.70
2023-10-20T00:34:43.513Z,5.80
2023-10-20T00:37:46.103Z,4.10
2023-10-20T00:40:51.613Z,4.55
2023-10-20T00:43:54.919Z,4.63
2023-10-20T00:46:58.304Z,4.07
2023-10-20T00:50:01.302Z,4.45
2023-10-20T00:53:04.198Z,4.47
2023-10-20T00:56:07.731Z,4.72
2023-10-20T00:59:10.771Z,3.78
2023-10-20T01:02:14.247Z,4.68
2023-10-20T01:05:17.095Z,4.13
2023-10-20T01:08:20.618Z,3.90
2023-10-20T01:11:23.078Z,4.03
2023-10-20T01:14:26.646Z,3.97
2023-10-20T01:17:30.489Z,5.97
2023-10-20T01:20:33.753Z,3.80
2023-10-20T01:23:36.013Z,6.35
2023-10-20T01:26:38.583Z,7.47
2023-10-20T01:29:41.868Z,4.63
2023-10-20T01:32:45.151Z,5.13
2023-10-20T01:35:47.946Z,4.20
2023-10-20T01:38:51.479Z,4.70
2023-10-20T01:41:53.705Z,5.63
2023-10-20T01:44:56.419Z,4.80
2023-10-20T01:47:58.913Z,3.95
2023-10-20T01:51:02.248Z,4.88
2023-10-20T01:54:04.823Z,4.65
2023-10-20T01:57:07.692Z,4.32
2023-10-20T02:00:15.076Z,4.60
2023-10-20T02:03:19.210Z,3.90
2023-10-20T02:06:21.889Z,4.43
2023-10-20T02:09:27.787Z,4.65
2023-10-20T02:12:30.037Z,5.60
2023-10-20T02:15:32.949Z,4.00
2023-10-20T02:18:36.500Z,5.07
2023-10-20T02:21:40.369Z,4.53
2023-10-20T02:24:42.828Z,7.55
2023-10-20T02:27:45.652Z,4.72
2023-10-20T02:30:47.828Z,6.57
2023-10-20T02:33:51.447Z,7.63
2023-10-20T02:36:54.096Z,10.40
2023-10-20T02:39:58.194Z,10.85
2023-10-20T02:43:00.514Z,9.32
2023-10-20T02:46:04.157Z,8.85
2023-10-20T02:49:06.528Z,8.35
2023-10-20T02:52:09.267Z,9.82
2023-10-20T02:55:11.547Z,6.60
2023-10-20T02:58:14.758Z,5.38
2023-10-20T03:01:19.368Z,11.05
2023-10-20T03:04:22.653Z,6.47
2023-10-20T03:07:28.964Z,10.30
2023-10-20T03:10:31.752Z,5.55
2023-10-20T03:13:34.813Z,7.18
2023-10-20T03:16:44.363Z,8.82
2023-10-20T03:19:46.943Z,9.68
2023-10-20T03:22:51.110Z,10.38
2023-10-20T03:25:53.378Z,8.23
2023-10-20T03:28:56.416Z,6.10
2023-10-20T03:31:59.628Z,5.43
2023-10-20T03:35:03.273Z,9.07
2023-10-20T03:38:09.332Z,6.30
2023-10-20T03:41:12.932Z,6.10
2023-10-20T03:44:15.808Z,9.03
2023-10-20T03:47:20.154Z,7.85
2023-10-20T03:50:23.157Z,6.28
2023-10-20T03:53:28.858Z,9.18
2023-10-20T03:56:31.356Z,7.20
2023-10-20T03:59:34.046Z,9.02
2023-10-20T04:02:36.405Z,6.15
2023-10-20T04:05:40.104Z,7.38
2023-10-20T04:08:42.841Z,6.88
2023-10-20T04:11:46.153Z,6.40
2023-10-20T04:14:48.666Z,8.27
2023-10-20T04:17:53.385Z,6.55
2023-10-20T04:24:01.796Z,7.57
2023-10-20T04:27:05.971Z,5.85
2023-10-20T04:30:29.113Z,4.88
2023-10-20T04:33:50.302Z,5.45
2023-10-20T04:37:11.618Z,8.38
2023-10-20T04:40:32.722Z,9.20
2023-10-20T04:43:43.317Z,5.63
2023-10-20T04:47:01.961Z,5.38
2023-10-20T04:50:37.173Z,6.93
2023-10-20T04:54:09.183Z,6.45
2023-10-20T04:57:33.813Z,5.82
2023-10-20T05:00:39.232Z,7.10
2023-10-20T05:03:48.138Z,5.85
2023-10-20T05:07:03.374Z,8.77
2023-10-20T05:10:07.830Z,7.43
2023-10-20T05:13:10.640Z,7.18
2023-10-20T05:16:13.749Z,5.45
2023-10-20T05:19:16.059Z,5.20
2023-10-20T05:22:18.813Z,5.28
2023-10-20T05:25:21.192Z,5.43
2023-10-20T05:28:24.959Z,6.25
2023-10-20T05:31:28.509Z,4.63
2023-10-20T05:34:32.879Z,7.10
2023-10-20T05:37:35.462Z,7.00
2023-10-20T05:40:38.724Z,7.60
2023-10-20T05:43:42.446Z,7.30
2023-10-20T05:46:45.547Z,10.50
2023-10-20T05:49:47.855Z,8.45
2023-10-20T05:52:54.187Z,6.97
2023-10-20T05:55:56.207Z,10.30
2023-10-20T05:58:59.108Z,6.22
2023-10-20T06:02:04.666Z,7.88
2023-10-20T06:05:11.772Z,6.97
2023-10-20T06:08:14.357Z,7.30
2023-10-20T06:11:17.406Z,10.60
2023-10-20T06:14:19.560Z,9.82
2023-10-20T06:17:22.675Z,7.13
2023-10-20T06:20:25.687Z,6.10
2023-10-20T06:23:28.801Z,9.82
2023-10-20T06:26:31.106Z,7.15
2023-10-20T06:29:34.439Z,7.72
2023-10-20T06:32:46.587Z,5.53
2023-10-20T06:35:53.468Z,6.03
2023-10-20T06:38:55.847Z,5.97
2023-10-20T06:41:58.697Z,6.85
2023-10-20T06:45:06.296Z,6.50
2023-10-20T06:48:09.241Z,6.03
2023-10-20T06:51:11.778Z,7.68
2023-10-20T06:54:14.871Z,6.75
2023-10-20T06:57:20.399Z,6.65
2023-10-20T07:00:23.475Z,6.28
2023-10-20T07:03:27.125Z,5.88
2023-10-20T07:06:30.125Z,5.93
2023-10-20T07:09:32.310Z,5.80
2023-10-20T07:12:35.183Z,5.38
2023-10-20T07:15:40.415Z,4.93
2023-10-20T07:18:43.203Z,5.65
2023-10-20T07:21:45.450Z,5.38
2023-10-20T07:24:49.049Z,5.20
2023-10-20T07:27:51.951Z,4.55
2023-10-20T07:30:55.343Z,4.90
2023-10-20T07:33:59.615Z,5.05
2023-10-20T07:40:06.311Z,4.43
2023-10-20T07:43:09.112Z,4.78
2023-10-20T07:46:19.150Z,4.55
2023-10-20T07:49:24.166Z,5.28
2023-10-20T07:52:27.412Z,4.80
2023-10-20T07:55:30.695Z,4.40
2023-10-20T07:58:34.140Z,4.80
2023-10-20T08:01:36.977Z,4.15
2023-10-20T08:04:42.014Z,3.90
2023-10-20T08:07:45.214Z,4.03
2023-10-20T08:10:49.040Z,3.97
2023-10-20T08:13:52.840Z,4.05
2023-10-20T08:16:57.199Z,3.25
2023-10-20T08:20:00.761Z,3.88
2023-10-20T08:23:02.987Z,3.85
2023-10-20T08:26:06.227Z,3.70
2023-10-20T08:29:12.680Z,3.45
2023-10-20T08:32:15.668Z,2.92
2023-10-20T08:35:18.409Z,3.35
2023-10-20T08:38:21.912Z,3.17
2023-10-20T08:41:25.062Z,2.40
2023-10-20T08:44:28.663Z,2.20
2023-10-20T08:47:31.646Z,2.60
2023-10-20T08:50:37.231Z,2.10
2023-10-20T08:53:41.235Z,2.05
2023-10-20T08:56:44.712Z,2.10
2023-10-20T08:59:53.942Z,1.90
2023-10-20T09:02:59.931Z,2.75
2023-10-20T09:06:11.464Z,2.05
2023-10-20T09:09:14.494Z,2.45
2023-10-20T09:12:17.411Z,1.88
2023-10-20T09:15:20.029Z,2.13
2023-10-20T09:18:23.471Z,2.05
2023-10-20T09:21:30.258Z,1.70
2023-10-20T09:24:33.215Z,1.50
2023-10-20T09:27:35.981Z,1.80
2023-10-20T09:30:40.202Z,1.88
2023-10-20T09:33:43.612Z,1.88
2023-10-20T09:36:48.820Z,1.58
2023-10-20T09:39:57.724Z,1.65
2023-10-20T09:43:25.096Z,1.48
2023-10-20T09:46:57.357Z,1.33
2023-10-20T09:50:01.245Z,1.48
2023-10-20T09:53:04.263Z,1.60
2023-10-20T09:56:07.254Z,1.50
2023-10-20T09:59:11.040Z,1.30
2023-10-20T10:02:13.454Z,1.92
2023-10-20T10:05:23.578Z,0.90
2023-10-20T10:08:26.441Z,1.20
2023-10-20T10:11:31.084Z,1.30
2023-10-20T10:14:34.213Z,0.95
2023-10-20T10:17:50.500Z,1.10
2023-10-20T10:20:53.547Z,1.10
2023-10-20T10:24:16.471Z,1.10
2023-10-20T10:27:21.047Z,1.00
2023-10-20T10:30:29.252Z,1.08
2023-10-20T10:33:31.471Z,1.27
2023-10-20T10:36:45.313Z,1.00
2023-10-20T10:39:47.580Z,1.30
2023-10-20T10:42:51.672Z,1.20
2023-10-20T10:45:55.326Z,0.90
2023-10-20T10:49:10.344Z,1.10
2023-10-20T10:52:12.482Z,1.20
2023-10-20T10:55:15.908Z,0.93
2023-10-20T10:58:18.513Z,1.00
2023-10-20T11:01:22.312Z,1.20
2023-10-20T11:04:25.829Z,0.82
2023-10-20T11:07:28.623Z,1.05
2023-10-20T11:10:32.242Z,1.27
2023-10-20T11:13:35.192Z,1.23
2023-10-20T11:16:40.635Z,1.10
2023-10-20T11:19:44.094Z,0.88
2023-10-20T11:22:46.863Z,1.00
2023-10-20T11:25:51.454Z,0.90
2023-10-20T11:28:54.328Z,0.90
2023-10-20T11:31:58.264Z,1.10
2023-10-20T11:35:00.715Z,1.02
2023-10-20T11:38:04.601Z,1.10
2023-10-20T11:41:06.893Z,0.90
2023-10-20T11:44:09.947Z,0.90
2023-10-20T11:47:12.244Z,1.38
2023-10-20T11:50:20.584Z,1.23
2023-10-20T11:53:23.717Z,0.90
2023-10-20T11:56:29.126Z,1.33
2023-10-20T11:59:34.602Z,1.10
2023-10-20T12:02:41.005Z,1.20
2023-10-20T12:05:43.916Z,0.90
2023-10-20T12:08:46.458Z,1.00
2023-10-20T12:11:48.761Z,0.98
2023-10-20T12:14:51.450Z,0.90
2023-10-20T12:17:53.649Z,1.00
2023-10-20T12:20:56.594Z,0.93
2023-10-20T12:23:59.235Z,0.90
2023-10-20T12:27:02.874Z,0.90
2023-10-20T12:30:05.891Z,0.88
2023-10-20T12:33:09.861Z,0.82
2023-10-20T12:36:17.924Z,0.88
2023-10-20T12:39:22.525Z,1.08
2023-10-20T12:42:25.744Z,1.00
2023-10-20T12:45:29.896Z,0.73
2023-10-20T12:48:32.537Z,0.65
2023-10-20T12:51:35.727Z,0.80
2023-10-20T12:54:38.017Z,0.90
2023-10-20T12:57:41.292Z,1.00
2023-10-20T13:00:43.467Z,0.88
2023-10-20T13:03:46.215Z,0.90
2023-10-20T13:06:59.815Z,0.63
2023-10-20T13:10:05.137Z,0.55
2023-10-20T13:13:10.004Z,0.80
2023-10-20T13:16:14.787Z,0.70
2023-10-20T13:19:17.158Z,0.70
2023-10-20T13:22:20.079Z,0.60
2023-10-20T13:25:24.499Z,0.60
2023-10-20T13:28:28.002Z,0.60
2023-10-20T13:31:30.342Z,0.60
2023-10-20T13:34:35.376Z,0.77
2023-10-20T13:37:39.419Z,0.60
2023-10-20T13:40:42.251Z,0.63
2023-10-20T13:43:46.033Z,0.57
2023-10-20T13:46:49.099Z,0.70
2023-10-20T13:49:51.378Z,0.77
2023-10-20T13:52:54.204Z,0.50
2023-10-20T13:55:56.535Z,0.40
2023-10-20T13:59:00.051Z,0.50
2023-10-20T14:02:02.307Z,0.60
2023-10-20T14:05:08.819Z,0.70
2023-10-20T14:08:13.046Z,0.70
2023-10-20T14:11:16.142Z,0.50
2023-10-20T14:14:18.429Z,0.40
2023-10-20T14:17:21.396Z,0.40
2023-10-20T14:20:24.369Z,0.57
2023-10-20T14:23:33.037Z,0.50
2023-10-20T14:26:35.805Z,0.40
2023-10-20T14:29:38.291Z,0.50
2023-10-20T14:32:40.587Z,0.30
2023-10-20T14:35:43.768Z,0.50
2023-10-20T14:38:47.822Z,0.68
2023-10-20T14:44:53.157Z,0.30
2023-10-20T14:47:56.674Z,0.50
2023-10-20T14:51:02.831Z,0.40
2023-10-20T14:54:05.735Z,0.60
2023-10-20T14:57:08.525Z,0.70
2023-10-20T15:00:12.697Z,0.43
2023-10-20T15:03:22.624Z,0.60
2023-10-20T15:06:27.274Z,0.50
2023-10-20T15:09:29.619Z,0.60
2023-10-20T15:12:33.108Z,0.55
2023-10-20T15:15:37.723Z,0.50
2023-10-20T15:18:40.614Z,0.60
2023-10-20T15:21:44.366Z,0.68
2023-10-20T15:24:49.488Z,0.40
2023-10-20T15:27:52.342Z,0.50
2023-10-20T15:30:54.903Z,0.68
2023-10-20T15:33:57.047Z,0.60
2023-10-20T15:37:20.652Z,1.15
2023-10-20T15:40:23.452Z,0.40
2023-10-20T15:43:27.944Z,0.80
2023-10-20T15:46:30.635Z,1.00
2023-10-20T15:49:33.352Z,0.43
2023-10-20T15:52:36.730Z,0.55
2023-10-20T15:55:44.504Z,0.60
2023-10-20T16:02:36.307Z,0.95
2023-10-20T16:05:42.066Z,0.38
2023-10-20T16:08:59.274Z,0.43
2023-10-20T16:16:34.836Z,0.65
2023-10-20T16:20:11.999Z,0.40
2023-10-20T16:31:25.744Z,0.73
2023-10-20T16:34:29.581Z,0.40
2023-10-20T16:41:25.667Z,0.70
2023-10-20T16:44:35.399Z,0.30
2023-10-20T16:47:39.535Z,0.52
2023-10-20T16:51:19.626Z,0.40
2023-10-20T16:54:22.571Z,0.47
2023-10-20T16:57:45.841Z,0.70
2023-10-20T17:04:29.925Z,0.50
2023-10-20T17:07:32.496Z,0.60
2023-10-20T17:10:38.757Z,1.80
2023-10-20T17:13:41.690Z,3.45
2023-10-20T17:16:46.905Z,4.30
2023-10-20T17:19:49.560Z,5.10
2023-10-20T17:22:51.675Z,5.88
2023-10-20T17:25:54.484Z,6.90
2023-10-20T17:28:56.652Z,7.20
2023-10-20T17:32:00.448Z,7.05
2023-10-20T17:35:02.890Z,7.43
2023-10-20T17:38:05.787Z,9.88
2023-10-20T17:41:09.187Z,8.80
2023-10-20T17:44:12.372Z,9.60
2023-10-20T17:47:15.980Z,10.73
2023-10-20T17:50:18.962Z,10.70
2023-10-20T17:53:21.665Z,11.18
2023-10-20T17:56:24.533Z,12.25
2023-10-20T17:59:30.995Z,11.98
2023-10-20T18:02:35.205Z,11.32
2023-10-20T18:05:38.578Z,12.73
2023-10-20T18:12:18.631Z,12.73
2023-10-20T18:15:22.344Z,14.02
2023-10-20T18:18:33.802Z,12.68
2023-10-20T18:21:40.738Z,11.75
2023-10-20T18:24:45.442Z,12.18
2023-10-20T18:28:12.993Z,11.98
2023-10-20T18:31:37.907Z,12.07
2023-10-20T18:43:44.530Z,13.20
2023-10-20T18:47:25.128Z,12.20
2023-10-20T18:59:57.084Z,12.18
2023-10-20T19:03:00.212Z,12.50
2023-10-20T19:06:04.756Z,11.90
2023-10-20T19:09:07.444Z,11.98
2023-10-20T19:12:10.528Z,11.82
2023-10-20T19:15:33.059Z,11.90
2023-10-20T19:18:37.141Z,11.63
2023-10-20T19:21:43.829Z,10.27
2023-10-20T19:24:49.277Z,9.93
2023-10-20T19:27:52.069Z,9.65
2023-10-20T19:31:01.379Z,10.18
2023-10-20T19:34:06.207Z,9.13
2023-10-20T19:37:08.859Z,9.52
2023-10-20T19:40:11.385Z,8.68
2023-10-20T19:43:14.418Z,9.35
2023-10-20T19:46:16.858Z,9.65
2023-10-20T19:49:19.911Z,9.10
2023-10-20T19:52:22.275Z,9.73
2023-10-20T19:55:24.845Z,9.05
2023-10-20T19:58:30.507Z,9.43
2023-10-20T20:01:40.946Z,9.55
2023-10-20T20:04:43.371Z,9.45
2023-10-20T20:07:46.394Z,9.85
2023-10-20T20:10:48.651Z,8.98
2023-10-20T20:13:51.667Z,8.68
2023-10-20T20:16:54.001Z,8.80
2023-10-20T20:19:57.644Z,9.05
2023-10-20T20:23:01.828Z,9.48
2023-10-20T20:26:05.673Z,8.00
2023-10-20T20:29:08.524Z,8.60
2023-10-20T20:32:11.096Z,8.48
2023-10-20T20:35:13.489Z,9.65
2023-10-20T20:38:16.900Z,7.95
2023-10-20T20:41:19.602Z,8.25
2023-10-20T20:44:23.501Z,8.20
2023-10-20T20:47:26.199Z,7.75
2023-10-20T20:50:33.537Z,7.78
2023-10-20T20:53:36.811Z,6.68
2023-10-20T20:56:39.529Z,6.38
2023-10-20T20:59:41.912Z,7.20
2023-10-20T21:02:44.522Z,6.80
2023-10-20T21:05:46.934Z,7.03
2023-10-20T21:08:49.848Z,6.28
2023-10-20T21:11:52.201Z,6.63
2023-10-20T21:14:56.556Z,7.25
2023-10-20T21:17:59.102Z,5.85
2023-10-20T21:21:03.694Z,6.80
2023-10-20T21:24:06.977Z,5.85
2023-10-20T21:27:09.561Z,5.70
2023-10-20T21:30:12.864Z,6.30
2023-10-20T21:33:15.892Z,6.40
2023-10-20T21:36:18.285Z,6.07
2023-10-20T21:39:23.020Z,6.38
2023-10-20T21:42:25.189Z,6.30
2023-10-20T21:45:28.049Z,5.63
2023-10-20T21:48:32.322Z,5.78
2023-10-20T21:51:35.396Z,5.53
2023-10-20T21:54:37.515Z,5.65
2023-10-20T21:57:40.073Z,5.65
2023-10-20T22:00:45.948Z,5.22
2023-10-20T22:03:48.670Z,5.00
2023-10-20T22:06:51.507Z,4.93
2023-10-20T22:09:54.707Z,5.65
2023-10-20T22:12:57.920Z,5.30
2023-10-20T22:16:00.696Z,4.88
2023-10-20T22:19:03.561Z,4.70
2023-10-20T22:22:06.190Z,4.75
2023-10-20T22:25:08.893Z,4.72
2023-10-20T22:28:11.663Z,4.20
2023-10-20T22:31:13.950Z,4.95
2023-10-20T22:34:17.088Z,4.07
2023-10-20T22:37:19.542Z,4.10
2023-10-20T22:40:22.774Z,4.57
2023-10-20T22:43:24.867Z,4.03
2023-10-20T22:46:27.585Z,3.85
2023-10-20T22:49:29.677Z,3.25
2023-10-20T22:52:32.667Z,3.58
2023-10-20T22:55:35.147Z,4.22
2023-10-20T22:58:38.178Z,3.58
2023-10-20T23:01:40.698Z,3.58
2023-10-20T23:04:43.320Z,3.83
2023-10-20T23:07:45.564Z,3.35
2023-10-20T23:10:48.379Z,3.03
2023-10-20T23:13:50.399Z,3.92
2023-10-20T23:16:54.560Z,3.75
2023-10-20T23:19:58.062Z,3.20
2023-10-20T23:23:00.772Z,3.80
2023-10-20T23:26:03.796Z,3.50
2023-10-20T23:29:06.334Z,3.55
2023-10-20T23:32:10.142Z,3.50
2023-10-20T23:35:12.839Z,3.17
2023-10-20T23:38:15.309Z,3.05
2023-10-20T23:41:17.979Z,3.10
2023-10-20T23:44:20.877Z,2.83
2023-10-20T23:47:23.362Z,3.00
2023-10-20T23:50:25.795Z,2.88
2023-10-20T23:53:28.761Z,2.72
2023-10-20T23:56:31.568Z,2.60
2023-10-20T23:59:34.569Z,3.03
